McKinley Park, Alaska
Current Conditions -  °F | °C
As of 1:16 AM on Saturday 25 Oct 2014 (Local Time) from PAIN Reporting Station
Overcast Overcast  
Wind Chill: 25°   Ceiling: 2900
Heat Index: 25°   Visibility: 10mi
Dew Point: 25°   Wind: 0mph
Humidity: 100%   Direction: NA
Pressure: 29.92"   Gusts: NA
Location:  63.73°N, 148.91°W
Report Text: PAIN 250916Z AUTO 00000KT 10SM BKN029 OVC033 M04/M04 A2992 RMK AO1
Loading
Personal Weather Stations






























Interactive Weather Map New forecast layout! Learn more

10-Day Weather Forecast

Advertisements
Track Severe Weather on mobile